Time;durP1;ratioP1;P1;durP2;ratioP2;P2;SDS_P1;SDS_P2;PMS_P1;PMS_P2;Temp;Humidity;BMP_temperature;BMP_pressure;BME280_temperature;BME280_humidity;BME280_pressure;Samples;Min_cycle;Max_cycle;Signal;HPM_P1;HPM_P2
2023/08/31 00:00:42;;;;;;;4.72;3.65;;;13.50;99.90;;;;;;5006281;28;20510;-66
2023/08/31 00:03:14;;;;;;;4.20;3.80;;;13.40;99.90;;;;;;5002951;28;20042;-66
2023/08/31 00:05:47;;;;;;;6.82;3.90;;;13.40;99.90;;;;;;5003572;28;20057;-66
2023/08/31 00:08:18;;;;;;;5.13;3.88;;;13.40;99.90;;;;;;5002720;28;20457;-66
2023/08/31 00:10:57;;;;;;;4.88;3.95;;;13.40;99.90;;;;;;5001667;28;20580;-66
2023/08/31 00:13:29;;;;;;;6.43;3.95;;;13.40;99.90;;;;;;5001467;28;20049;-66
2023/08/31 00:16:01;;;;;;;4.25;3.85;;;13.40;99.90;;;;;;4981025;28;20511;-66
2023/08/31 00:18:35;;;;;;;4.40;4.00;;;13.40;99.90;;;;;;5000366;28;20469;-66
2023/08/31 00:21:08;;;;;;;5.68;4.00;;;13.40;99.90;;;;;;5003794;28;20049;-66
2023/08/31 00:23:40;;;;;;;4.20;3.80;;;13.40;99.90;;;;;;5002710;28;20042;-66
2023/08/31 00:26:12;;;;;;;4.70;4.20;;;13.40;99.90;;;;;;5001850;28;20050;-66
2023/08/31 00:28:47;;;;;;;4.43;3.75;;;13.50;99.90;;;;;;4971050;28;20050;-66
2023/08/31 00:31:19;;;;;;;4.45;4.05;;;13.50;99.90;;;;;;4986117;28;20406;-66
2023/08/31 00:33:51;;;;;;;7.15;4.30;;;13.50;99.90;;;;;;4985219;28;20042;-65
2023/08/31 00:36:18;;;;;;;3.67;3.38;;;13.60;99.90;;;;;;5002914;28;20045;-66
2023/08/31 00:38:50;;;;;;;4.00;3.55;;;13.60;99.90;;;;;;5000075;28;20590;-66
2023/08/31 00:41:23;;;;;;;4.43;3.95;;;13.60;99.90;;;;;;4978628;28;20054;-66
2023/08/31 00:43:55;;;;;;;6.10;5.53;;;13.60;99.90;;;;;;4976316;28;20065;-66
2023/08/31 00:46:27;;;;;;;5.18;4.13;;;13.70;99.90;;;;;;4998907;28;20050;-66
2023/08/31 00:49:00;;;;;;;4.15;3.75;;;13.70;99.90;;;;;;4976548;28;20065;-66
2023/08/31 00:51:33;;;;;;;7.20;4.63;;;13.70;99.90;;;;;;5003269;28;20139;-66
2023/08/31 00:54:05;;;;;;;6.05;5.22;;;13.70;99.90;;;;;;5000603;28;20113;-66
2023/08/31 00:56:37;;;;;;;5.53;5.03;;;13.70;99.90;;;;;;5001421;28;20495;-66
2023/08/31 00:59:09;;;;;;;5.60;5.10;;;13.50;99.90;;;;;;4983200;28;20507;-66
2023/08/31 01:02:11;;;;;;;5.90;5.40;;;13.40;99.90;;;;;;4998634;28;20046;-66
2023/08/31 01:05:14;;;;;;;5.25;4.75;;;13.30;99.90;;;;;;4959974;28;20049;-66
2023/08/31 01:07:52;;;;;;;6.10;5.50;;;13.30;99.90;;;;;;5001321;28;20597;-66
2023/08/31 01:10:36;;;;;;;5.82;5.00;;;13.30;99.90;;;;;;4989181;28;20137;-66
2023/08/31 01:13:13;;;;;;;6.68;5.63;;;13.30;99.90;;;;;;5002314;28;20121;-66
2023/08/31 01:15:49;;;;;;;5.60;4.82;;;13.30;99.90;;;;;;5001035;28;20045;-66
2023/08/31 01:18:25;;;;;;;5.70;5.10;;;13.30;99.90;;;;;;5000270;23;20046;-65
2023/08/31 01:21:23;;;;;;;5.40;4.90;;;13.40;99.90;;;;;;4984108;28;20540;-66
2023/08/31 01:23:57;;;;;;;5.82;5.07;;;13.40;99.90;;;;;;4979668;28;20593;-65
2023/08/31 01:26:25;;;;;;;6.82;5.95;;;13.40;99.90;;;;;;4982062;28;20038;-65
2023/08/31 01:28:54;;;;;;;6.55;5.18;;;13.40;99.90;;;;;;4975882;28;20035;-65
2023/08/31 01:31:26;;;;;;;6.18;5.57;;;13.40;99.90;;;;;;4991080;28;20074;-65
2023/08/31 01:33:58;;;;;;;6.95;5.57;;;13.40;99.90;;;;;;4990138;28;20039;-65
2023/08/31 01:36:34;;;;;;;7.22;6.28;;;13.30;99.90;;;;;;4986954;28;20043;-65
2023/08/31 01:39:17;;;;;;;7.95;6.03;;;13.30;99.90;;;;;;4992574;28;20138;-65
2023/08/31 01:41:56;;;;;;;6.90;6.30;;;13.30;99.90;;;;;;4986133;28;20053;-66
2023/08/31 01:44:31;;;;;;;7.18;6.30;;;13.30;99.90;;;;;;4987847;28;20057;-66
2023/08/31 01:47:06;;;;;;;6.63;5.93;;;13.30;99.90;;;;;;5001226;28;20514;-65
2023/08/31 01:49:39;;;;;;;7.53;6.68;;;13.30;99.90;;;;;;4982066;28;20045;-65
2023/08/31 01:52:12;;;;;;;11.82;6.60;;;13.30;99.90;;;;;;4979225;28;20050;-65
2023/08/31 01:54:43;;;;;;;7.68;5.93;;;13.30;99.90;;;;;;4992916;28;20477;-65
2023/08/31 01:57:15;;;;;;;6.30;5.68;;;13.30;99.90;;;;;;4986366;28;20136;-65
2023/08/31 02:00:00;;;;;;;5.88;5.18;;;13.30;99.90;;;;;;4998172;28;20063;-65
2023/08/31 02:02:40;;;;;;;9.38;6.63;;;13.30;99.90;;;;;;4986594;28;20054;-65
2023/08/31 02:05:07;;;;;;;6.93;5.90;;;13.30;99.90;;;;;;4988167;28;20464;-65
2023/08/31 02:07:40;;;;;;;6.68;5.40;;;13.30;99.90;;;;;;5003801;28;20121;-65
2023/08/31 02:10:12;;;;;;;6.38;5.78;;;13.20;99.90;;;;;;4989450;28;20042;-65
2023/08/31 02:12:43;;;;;;;7.10;5.70;;;13.20;99.90;;;;;;4978253;28;20050;-65
2023/08/31 02:15:15;;;;;;;5.82;5.22;;;13.20;99.90;;;;;;4996793;28;20054;-65
2023/08/31 02:17:47;;;;;;;5.43;4.93;;;13.10;99.90;;;;;;4998793;28;20043;-65
2023/08/31 02:20:20;;;;;;;7.28;5.25;;;13.20;99.90;;;;;;4987721;28;20038;-65
2023/08/31 02:22:52;;;;;;;7.00;5.10;;;13.20;99.90;;;;;;4981223;28;20046;-65
2023/08/31 02:25:18;;;;;;;6.05;5.32;;;13.20;99.90;;;;;;4982325;28;20151;-65
2023/08/31 02:27:50;;;;;;;4.97;4.43;;;13.10;99.90;;;;;;4988435;28;20052;-65
2023/08/31 02:30:17;;;;;;;5.07;4.57;;;13.10;99.90;;;;;;5000578;28;20419;-65
2023/08/31 02:32:44;;;;;;;6.32;4.57;;;13.10;99.90;;;;;;4989389;28;20128;-65
2023/08/31 02:35:13;;;;;;;5.30;3.88;;;13.10;99.90;;;;;;4978579;28;20039;-65
2023/08/31 02:37:45;;;;;;;6.38;4.82;;;13.10;99.90;;;;;;4983689;28;20053;-65
2023/08/31 02:40:18;;;;;;;5.22;3.80;;;13.00;99.90;;;;;;4996416;28;20050;-65
2023/08/31 02:42:52;;;;;;;5.10;4.28;;;13.00;99.90;;;;;;4989545;28;20093;-65
2023/08/31 02:45:24;;;;;;;4.63;3.83;;;13.00;99.90;;;;;;5000185;28;20142;-65
2023/08/31 02:47:56;;;;;;;5.13;4.07;;;13.00;99.90;;;;;;4981931;28;20050;-65
2023/08/31 02:50:29;;;;;;;4.27;3.53;;;13.00;99.90;;;;;;4985096;28;20503;-65
2023/08/31 02:52:55;;;;;;;3.83;3.33;;;12.90;99.90;;;;;;4987149;28;20358;-65
2023/08/31 02:55:27;;;;;;;6.30;4.68;;;13.00;99.90;;;;;;4985420;28;20050;-65
2023/08/31 02:57:59;;;;;;;5.75;4.00;;;13.00;99.90;;;;;;4985510;28;20054;-65
2023/08/31 03:00:33;;;;;;;4.22;3.50;;;13.00;99.90;;;;;;4981560;28;20043;-65
2023/08/31 03:03:05;;;;;;;5.97;3.72;;;13.00;99.90;;;;;;4995716;28;20050;-65
2023/08/31 03:05:37;;;;;;;4.50;3.63;;;12.90;99.90;;;;;;4997502;28;20499;-65
2023/08/31 03:08:09;;;;;;;4.75;3.17;;;12.80;99.90;;;;;;4991398;28;20035;-65
2023/08/31 03:10:42;;;;;;;4.82;3.35;;;12.80;99.90;;;;;;4999079;28;20043;-65
2023/08/31 03:13:14;;;;;;;3.10;2.80;;;12.70;99.90;;;;;;4988824;28;20550;-67
2023/08/31 03:15:45;;;;;;;4.57;3.28;;;12.60;99.90;;;;;;4997809;28;20051;-65
2023/08/31 03:18:17;;;;;;;5.90;3.25;;;12.60;99.90;;;;;;4992083;28;20041;-66
2023/08/31 03:20:50;;;;;;;4.43;2.80;;;12.50;99.90;;;;;;4991498;28;20042;-65
2023/08/31 03:23:24;;;;;;;6.28;3.28;;;12.50;99.90;;;;;;4983847;28;20043;-65
2023/08/31 03:25:56;;;;;;;5.55;3.10;;;12.50;99.90;;;;;;4988923;28;20050;-65
2023/08/31 03:28:28;;;;;;;5.32;3.30;;;12.40;99.90;;;;;;4985508;28;20438;-65
2023/08/31 03:30:56;;;;;;;6.25;4.43;;;12.40;99.90;;;;;;4986402;28;20049;-65
2023/08/31 03:33:24;;;;;;;4.95;3.53;;;12.40;99.90;;;;;;4985423;28;20107;-65
2023/08/31 03:36:04;;;;;;;4.75;3.22;;;12.40;99.90;;;;;;4987834;28;20051;-66
2023/08/31 03:38:37;;;;;;;5.57;3.95;;;12.30;99.90;;;;;;4984434;28;20510;-65
2023/08/31 03:41:09;;;;;;;4.18;3.80;;;12.30;99.90;;;;;;4978046;28;20065;-65
2023/08/31 03:43:41;;;;;;;5.32;3.40;;;12.30;99.90;;;;;;4975945;28;20137;-65
2023/08/31 03:46:13;;;;;;;5.38;3.40;;;12.30;99.90;;;;;;4975990;28;20046;-65
2023/08/31 03:48:39;;;;;;;5.80;3.75;;;12.30;99.90;;;;;;4982439;28;20057;-65
2023/08/31 03:51:11;;;;;;;4.95;3.33;;;12.30;99.90;;;;;;4993178;28;20049;-65
2023/08/31 03:53:39;;;;;;;3.95;3.30;;;12.20;99.90;;;;;;4974362;28;20133;-65
2023/08/31 03:56:05;;;;;;;4.32;3.45;;;12.20;99.90;;;;;;5001955;28;20129;-65
2023/08/31 03:58:37;;;;;;;4.22;3.50;;;12.20;99.90;;;;;;4998750;28;20034;-65
2023/08/31 04:01:10;;;;;;;7.55;3.55;;;12.20;99.90;;;;;;4983281;28;20050;-65
2023/08/31 04:03:42;;;;;;;4.22;3.58;;;12.20;99.90;;;;;;4995356;28;20057;-65
2023/08/31 04:06:14;;;;;;;4.45;3.15;;;12.20;99.90;;;;;;4978468;28;20070;-66
2023/08/31 04:08:49;;;;;;;4.00;3.35;;;12.20;99.90;;;;;;4992335;28;20105;-65
2023/08/31 04:11:20;;;;;;;3.92;3.22;;;12.30;99.90;;;;;;4999957;28;20522;-65
2023/08/31 04:13:47;;;;;;;4.07;3.25;;;12.30;99.90;;;;;;4984527;28;20149;-65
2023/08/31 04:16:19;;;;;;;4.63;3.17;;;12.30;99.90;;;;;;4996058;28;20056;-65
2023/08/31 04:18:52;;;;;;;3.72;2.60;;;12.30;99.90;;;;;;5000211;28;20043;-65
2023/08/31 04:21:19;;;;;;;4.90;3.17;;;12.40;99.90;;;;;;4987313;28;20042;-65
2023/08/31 04:23:50;;;;;;;4.03;3.08;;;12.40;99.90;;;;;;4993247;28;20401;-65
2023/08/31 04:26:17;;;;;;;3.65;3.03;;;12.40;99.90;;;;;;4979289;28;20049;-65
2023/08/31 04:28:49;;;;;;;3.83;3.42;;;12.40;99.90;;;;;;4994144;28;20070;-65
2023/08/31 04:31:21;;;;;;;4.85;2.92;;;12.40;99.90;;;;;;4977684;28;20265;-65
2023/08/31 04:33:53;;;;;;;3.70;2.88;;;12.30;99.90;;;;;;4998240;28;20142;-65
2023/08/31 04:36:28;;;;;;;4.65;3.33;;;12.30;99.90;;;;;;4985833;28;20045;-65
2023/08/31 04:39:00;;;;;;;4.80;3.33;;;12.30;99.90;;;;;;5000222;28;20051;-66
2023/08/31 04:41:27;;;;;;;3.58;3.08;;;12.30;99.90;;;;;;4987063;28;20422;-65
2023/08/31 04:43:54;;;;;;;3.80;3.03;;;12.30;99.90;;;;;;4987710;28;20043;-66
2023/08/31 04:46:21;;;;;;;4.30;2.80;;;12.40;99.90;;;;;;4984615;28;20042;-65
2023/08/31 04:48:53;;;;;;;3.65;3.00;;;12.40;99.90;;;;;;4980274;28;20043;-65
2023/08/31 04:51:32;;;;;;;5.20;3.13;;;12.40;99.90;;;;;;4977367;28;20495;-65
2023/08/31 04:54:04;;;;;;;3.38;3.03;;;12.50;99.90;;;;;;4978878;28;20089;-66
2023/08/31 04:56:33;;;;;;;3.55;3.00;;;12.50;99.90;;;;;;4978215;28;20041;-65
2023/08/31 04:59:05;;;;;;;4.03;2.80;;;12.50;99.90;;;;;;4987105;28;20093;-65
2023/08/31 05:01:37;;;;;;;3.67;2.63;;;12.50;99.90;;;;;;4983025;28;20052;-65
2023/08/31 05:04:09;;;;;;;3.00;2.70;;;12.50;99.90;;;;;;4983548;28;20042;-65
2023/08/31 05:06:40;;;;;;;3.00;2.42;;;12.50;99.90;;;;;;5000037;28;20384;-65
2023/08/31 05:09:12;;;;;;;3.50;2.90;;;12.50;99.90;;;;;;4995596;28;20042;-65
2023/08/31 05:11:44;;;;;;;2.83;2.42;;;12.50;99.90;;;;;;4977297;28;20053;-65
2023/08/31 05:14:15;;;;;;;3.05;2.60;;;12.50;99.90;;;;;;4979119;28;20047;-65
2023/08/31 05:16:47;;;;;;;3.85;2.70;;;12.50;99.90;;;;;;4994093;28;20058;-65
2023/08/31 05:19:19;;;;;;;3.00;2.67;;;12.60;99.90;;;;;;4981077;28;20047;-65
2023/08/31 05:21:51;;;;;;;3.33;3.00;;;12.60;99.90;;;;;;4998354;28;20053;-65
2023/08/31 05:24:24;;;;;;;3.47;3.00;;;12.60;99.90;;;;;;4982601;28;20062;-65
2023/08/31 05:26:50;;;;;;;4.93;2.70;;;12.70;99.90;;;;;;4978462;28;20051;-65
2023/08/31 05:29:22;;;;;;;2.80;2.30;;;12.70;99.90;;;;;;4994421;28;20039;-66
2023/08/31 05:31:54;;;;;;;3.50;2.45;;;12.70;99.90;;;;;;5003177;28;20435;-65
2023/08/31 05:34:26;;;;;;;3.25;2.63;;;12.70;99.90;;;;;;4982355;28;20038;-65
2023/08/31 05:36:58;;;;;;;3.97;3.50;;;12.70;99.90;;;;;;4981144;28;20053;-65
2023/08/31 05:39:25;;;;;;;6.10;2.78;;;12.70;99.90;;;;;;4978492;28;20038;-65
2023/08/31 05:41:57;;;;;;;3.20;2.60;;;12.80;99.90;;;;;;4990626;28;20050;-65
2023/08/31 05:44:29;;;;;;;4.47;2.72;;;12.80;99.90;;;;;;4999213;28;20054;-65
2023/08/31 05:47:00;;;;;;;3.05;2.60;;;12.80;99.90;;;;;;4984243;28;20043;-65
2023/08/31 05:49:27;;;;;;;5.78;3.13;;;12.70;99.90;;;;;;4979210;28;20141;-66
2023/08/31 05:51:59;;;;;;;3.95;2.63;;;12.80;99.90;;;;;;4977095;28;20523;-65
2023/08/31 05:54:27;;;;;;;3.88;2.58;;;12.80;99.90;;;;;;5000490;28;20130;-66
2023/08/31 05:56:53;;;;;;;4.55;3.10;;;12.80;99.90;;;;;;4981946;28;20127;-66
2023/08/31 05:59:21;;;;;;;3.72;2.97;;;12.80;99.90;;;;;;4980366;28;20045;-66
2023/08/31 06:01:53;;;;;;;4.68;3.10;;;12.90;99.90;;;;;;4978815;28;20038;-65
2023/08/31 06:04:25;;;;;;;4.43;2.50;;;12.90;99.90;;;;;;4983085;28;20039;-66
2023/08/31 06:06:53;;;;;;;7.70;3.58;;;13.00;99.90;;;;;;4994386;28;20047;-66
2023/08/31 06:09:20;;;;;;;4.68;2.95;;;13.00;99.90;;;;;;4984154;28;20081;-66
2023/08/31 06:11:52;;;;;;;5.07;3.13;;;13.00;99.90;;;;;;4995880;28;20046;-65
2023/08/31 06:14:24;;;;;;;3.80;2.70;;;13.10;99.90;;;;;;4975975;28;20117;-65
2023/08/31 06:16:56;;;;;;;3.60;2.83;;;13.10;99.90;;;;;;4974429;28;20137;-65
2023/08/31 06:19:27;;;;;;;4.57;3.40;;;13.10;99.90;;;;;;4984795;28;20133;-65
2023/08/31 06:21:54;;;;;;;3.97;2.85;;;13.20;99.90;;;;;;4983374;28;20046;-65
2023/08/31 06:24:26;;;;;;;3.75;2.97;;;13.20;99.90;;;;;;4983868;28;20443;-65
2023/08/31 06:26:58;;;;;;;3.22;2.63;;;13.30;99.90;;;;;;4985131;28;20635;-65
2023/08/31 06:29:30;;;;;;;4.10;2.83;;;13.30;99.90;;;;;;4983871;28;20051;-65
2023/08/31 06:31:57;;;;;;;4.88;2.60;;;13.40;99.90;;;;;;4986740;28;20074;-65
2023/08/31 06:34:24;;;;;;;3.97;2.50;;;13.50;99.90;;;;;;4984815;28;20038;-65
2023/08/31 06:36:51;;;;;;;4.97;3.08;;;13.50;99.90;;;;;;4981538;28;20046;-65
2023/08/31 06:39:22;;;;;;;3.55;2.58;;;13.70;99.90;;;;;;4983205;28;20039;-66
2023/08/31 06:41:54;;;;;;;4.35;3.00;;;13.80;99.90;;;;;;4974810;28;20047;-65
2023/08/31 06:44:30;;;;;;;5.03;2.42;;;13.90;99.90;;;;;;4998428;28;20391;-65
2023/08/31 06:47:03;;;;;;;3.08;2.50;;;13.90;99.90;;;;;;4983523;28;20054;-65
2023/08/31 06:49:32;;;;;;;3.78;2.28;;;13.90;99.90;;;;;;4997829;28;20062;-65
2023/08/31 06:52:00;;;;;;;4.45;2.65;;;14.00;99.90;;;;;;4984455;28;20043;-66
2023/08/31 06:54:32;;;;;;;6.15;2.45;;;14.00;99.90;;;;;;4987551;28;20046;-65
2023/08/31 06:57:04;;;;;;;3.22;2.40;;;14.00;99.90;;;;;;4998842;28;20041;-65
2023/08/31 06:59:36;;;;;;;4.38;2.83;;;13.90;99.90;;;;;;4981263;28;20039;-66
2023/08/31 07:02:08;;;;;;;5.68;3.85;;;13.90;99.90;;;;;;4977765;28;20071;-65
2023/08/31 07:04:34;;;;;;;4.38;2.35;;;13.90;99.90;;;;;;4975322;28;20527;-66
2023/08/31 07:07:08;;;;;;;3.40;2.10;;;14.00;99.90;;;;;;4987907;28;20121;-65
2023/08/31 07:09:46;;;;;;;4.07;2.50;;;14.10;99.90;;;;;;4986991;28;20085;-65
2023/08/31 07:12:18;;;;;;;4.93;2.35;;;14.20;99.90;;;;;;4981612;28;20085;-65
2023/08/31 07:14:49;;;;;;;3.50;2.30;;;14.30;99.90;;;;;;4984565;28;20046;-65
2023/08/31 07:17:19;;;;;;;3.55;3.03;;;14.40;99.90;;;;;;4988212;28;20069;-67
2023/08/31 07:19:52;;;;;;;5.07;2.38;;;14.40;99.90;;;;;;5009440;23;20045;-67
2023/08/31 07:22:24;;;;;;;3.20;2.03;;;14.50;99.90;;;;;;5037395;28;20041;-66
2023/08/31 07:24:56;;;;;;;5.43;2.10;;;14.50;99.90;;;;;;5035801;28;20129;-66
2023/08/31 07:27:28;;;;;;;3.67;2.08;;;14.60;99.90;;;;;;5043342;28;20045;-66
2023/08/31 07:30:00;;;;;;;3.25;2.10;;;14.60;99.90;;;;;;5039256;28;20116;-66
2023/08/31 07:32:32;;;;;;;4.03;2.28;;;14.60;99.90;;;;;;5028684;28;20034;-65
2023/08/31 07:35:04;;;;;;;6.07;2.08;;;14.70;99.90;;;;;;5020731;28;20068;-66
2023/08/31 07:37:37;;;;;;;2.92;1.83;;;14.70;99.90;;;;;;5038782;28;20043;-66
2023/08/31 07:40:09;;;;;;;6.17;2.33;;;14.70;99.90;;;;;;5037110;28;20048;-66
2023/08/31 07:42:41;;;;;;;5.20;1.90;;;14.60;99.90;;;;;;5034161;28;20049;-66
2023/08/31 07:45:13;;;;;;;4.00;1.85;;;14.60;99.90;;;;;;5030212;28;20218;-66
2023/08/31 07:47:45;;;;;;;4.35;1.92;;;14.60;99.90;;;;;;5031388;28;20620;-66
2023/08/31 07:50:17;;;;;;;5.00;2.00;;;14.70;99.90;;;;;;5014981;28;20156;-66
2023/08/31 07:52:44;;;;;;;5.93;2.13;;;14.60;99.90;;;;;;5038314;28;20477;-66
2023/08/31 07:55:16;;;;;;;3.83;2.00;;;14.60;99.90;;;;;;5040003;28;20045;-66
2023/08/31 07:57:48;;;;;;;5.18;2.50;;;14.60;99.90;;;;;;5034134;28;20049;-66
2023/08/31 08:00:20;;;;;;;5.45;2.47;;;14.60;99.90;;;;;;5037772;28;20116;-66
2023/08/31 08:02:51;;;;;;;4.75;2.20;;;14.60;99.90;;;;;;5040781;28;20045;-66
2023/08/31 08:05:23;;;;;;;4.47;2.42;;;14.70;99.90;;;;;;5031034;28;20045;-65
2023/08/31 08:07:55;;;;;;;3.83;2.17;;;14.70;99.90;;;;;;5031230;28;20065;-66
2023/08/31 08:10:27;;;;;;;5.68;2.67;;;14.60;99.90;;;;;;5031251;28;20045;-66
2023/08/31 08:12:59;;;;;;;8.52;2.55;;;14.70;99.90;;;;;;5029452;28;20520;-66
2023/08/31 08:15:31;;;;;;;4.97;2.50;;;14.60;99.90;;;;;;5031153;28;20037;-66
2023/08/31 08:18:03;;;;;;;7.97;3.78;;;14.60;99.90;;;;;;5044082;28;20041;-66
2023/08/31 08:20:35;;;;;;;6.93;3.30;;;14.60;99.90;;;;;;5034060;28;20037;-66
2023/08/31 08:23:07;;;;;;;8.70;3.30;;;14.70;99.90;;;;;;5029513;28;20043;-66
2023/08/31 08:25:39;;;;;;;5.93;3.30;;;14.60;99.90;;;;;;5040535;28;20044;-66
2023/08/31 08:28:11;;;;;;;6.53;3.00;;;14.70;99.90;;;;;;5034563;28;20051;-66
2023/08/31 08:30:43;;;;;;;4.55;2.60;;;14.70;99.90;;;;;;5032093;28;20042;-66
2023/08/31 08:33:15;;;;;;;6.30;2.58;;;14.70;99.90;;;;;;5025734;28;20033;-66
2023/08/31 08:35:46;;;;;;;3.45;2.33;;;14.70;99.90;;;;;;5029682;28;20043;-66
2023/08/31 08:38:18;;;;;;;8.10;2.50;;;14.70;99.90;;;;;;5032559;28;20049;-66
2023/08/31 08:40:45;;;;;;;5.35;2.53;;;14.80;99.90;;;;;;5041648;28;20029;-66
2023/08/31 08:43:24;;;;;;;8.80;3.17;;;14.80;99.90;;;;;;5038826;28;20049;-66
2023/08/31 08:46:04;;;;;;;6.15;3.15;;;14.90;99.90;;;;;;5035539;28;20052;-66
2023/08/31 08:48:37;;;;;;;3.92;2.08;;;14.90;99.90;;;;;;5037969;28;20424;-66
2023/08/31 08:51:11;;;;;;;3.72;2.00;;;14.90;99.90;;;;;;5035011;28;20041;-66
2023/08/31 08:53:43;;;;;;;5.72;2.75;;;14.90;99.90;;;;;;5029301;28;20038;-66
2023/08/31 08:56:10;;;;;;;3.53;1.83;;;15.00;99.90;;;;;;5027556;28;20038;-66
2023/08/31 08:58:42;;;;;;;9.00;3.00;;;15.00;99.90;;;;;;5008413;28;20070;-66
2023/08/31 09:01:17;;;;;;;7.80;2.38;;;15.10;99.90;;;;;;5032747;28;20045;-66
2023/08/31 09:03:49;;;;;;;4.47;2.38;;;15.20;99.90;;;;;;5040946;28;20042;-66
2023/08/31 09:06:22;;;;;;;4.85;1.90;;;15.30;99.90;;;;;;5039868;28;20052;-66
2023/08/31 09:08:58;;;;;;;7.57;2.47;;;15.50;99.90;;;;;;5038314;28;20045;-66
2023/08/31 09:11:30;;;;;;;4.05;2.25;;;15.70;99.90;;;;;;5037751;28;20040;-66
2023/08/31 09:14:17;;;;;;;3.58;2.10;;;15.90;99.90;;;;;;5040717;28;20509;-66
2023/08/31 09:16:50;;;;;;;3.83;2.08;;;16.10;99.90;;;;;;5030070;28;20037;-66
2023/08/31 09:19:27;;;;;;;4.43;2.20;;;16.00;99.90;;;;;;5023277;28;20121;-65
2023/08/31 09:21:56;;;;;;;4.50;1.98;;;15.80;99.90;;;;;;5029832;28;20056;-66
2023/08/31 09:24:24;;;;;;;4.50;2.03;;;15.70;99.90;;;;;;5032785;28;20044;-66
2023/08/31 09:26:57;;;;;;;5.45;2.40;;;15.60;99.90;;;;;;5040293;28;20618;-65
2023/08/31 09:29:30;;;;;;;7.47;2.38;;;15.30;99.90;;;;;;5040451;28;20036;-66
2023/08/31 09:31:57;;;;;;;6.45;2.67;;;15.20;99.90;;;;;;5039295;28;20040;-66
2023/08/31 09:34:36;;;;;;;6.50;2.22;;;15.20;99.90;;;;;;5040375;28;20166;-66
2023/08/31 09:37:09;;;;;;;3.95;2.30;;;15.20;99.90;;;;;;5042685;28;20128;-65
2023/08/31 09:39:37;;;;;;;4.78;2.38;;;15.40;99.90;;;;;;5029803;28;20439;-66
2023/08/31 09:42:09;;;;;;;3.30;2.20;;;15.50;99.90;;;;;;5025198;28;20462;-66
2023/08/31 09:44:43;;;;;;;6.22;1.95;;;15.70;99.90;;;;;;5028886;28;20045;-66
2023/08/31 09:47:18;;;;;;;6.10;2.15;;;15.80;99.90;;;;;;5030701;28;20056;-65
2023/08/31 09:49:51;;;;;;;4.90;1.90;;;15.90;99.90;;;;;;5037050;28;20048;-66
2023/08/31 09:52:24;;;;;;;7.63;2.50;;;15.90;99.90;;;;;;5038815;28;20084;-66
2023/08/31 09:54:58;;;;;;;2.95;2.03;;;15.90;99.90;;;;;;5038174;28;20056;-65
2023/08/31 09:57:31;;;;;;;3.97;2.35;;;15.90;99.90;;;;;;5042621;28;20580;-66
2023/08/31 10:00:04;;;;;;;4.38;2.13;;;15.90;99.90;;;;;;5046651;28;20043;-66
2023/08/31 10:02:35;;;;;;;5.10;2.20;;;15.90;99.90;;;;;;5026854;28;20518;-66
2023/08/31 10:05:07;;;;;;;6.00;3.13;;;16.00;99.90;;;;;;5027743;28;20632;-66
2023/08/31 10:07:39;;;;;;;5.10;2.53;;;16.20;99.90;;;;;;5031689;28;20402;-66
2023/08/31 10:10:12;;;;;;;4.60;1.98;;;16.30;99.90;;;;;;5036523;28;20128;-66
2023/08/31 10:12:49;;;;;;;5.07;2.58;;;16.20;99.90;;;;;;5036293;28;20438;-66
2023/08/31 10:15:21;;;;;;;5.00;2.30;;;16.20;99.90;;;;;;5040896;28;20046;-66
2023/08/31 10:17:48;;;;;;;4.28;2.13;;;16.30;99.90;;;;;;5024121;28;20046;-66
2023/08/31 10:20:20;;;;;;;3.55;2.00;;;16.30;99.90;;;;;;5036158;28;20045;-66
2023/08/31 10:22:52;;;;;;;4.90;2.22;;;16.10;99.90;;;;;;5045169;28;20044;-65
2023/08/31 10:25:19;;;;;;;5.22;2.28;;;15.90;99.90;;;;;;5037642;28;20046;-66
2023/08/31 10:27:51;;;;;;;6.53;2.70;;;15.90;99.90;;;;;;5027533;28;20632;-66
2023/08/31 10:30:23;;;;;;;4.83;2.73;;;15.90;99.90;;;;;;5030608;28;20403;-66
2023/08/31 10:33:07;;;;;;;5.68;2.28;;;16.00;99.90;;;;;;5033882;28;20041;-66
2023/08/31 10:35:57;;;;;;;;;;;16.20;99.90;;;;;;5041438;28;20065;-66
2023/08/31 10:38:27;;;;;;;2.67;1.83;;;16.30;99.90;;;;;;5038251;28;19960;-65
2023/08/31 10:41:07;;;;;;;5.43;2.00;;;16.30;99.90;;;;;;5037872;28;20520;-65
2023/08/31 10:43:53;;;;;;;4.60;1.98;;;16.40;99.90;;;;;;5038590;28;20441;-66
2023/08/31 10:46:34;;;;;;;6.90;1.88;;;16.40;99.90;;;;;;5041928;28;20045;-65
2023/08/31 10:49:09;;;;;;;4.60;2.00;;;16.50;99.90;;;;;;5030007;28;20049;-66
2023/08/31 10:51:45;;;;;;;8.68;1.95;;;16.40;99.90;;;;;;5029524;28;20562;-65
2023/08/31 10:54:26;;;;;;;5.10;1.63;;;16.40;99.90;;;;;;5031997;28;20033;-66
2023/08/31 10:57:08;;;;;;;4.32;2.15;;;16.40;99.90;;;;;;5034484;28;20403;-66
2023/08/31 10:59:50;;;;;;;5.30;1.98;;;16.40;99.90;;;;;;5040114;28;20568;-66
2023/08/31 11:02:28;;;;;;;3.80;1.50;;;16.60;99.90;;;;;;5035973;28;20413;-66
2023/08/31 11:05:07;;;;;;;8.15;2.03;;;16.60;99.90;;;;;;5035727;28;20052;-66
2023/08/31 11:07:41;;;;;;;5.00;2.10;;;16.80;99.90;;;;;;5038500;28;20488;-65
2023/08/31 11:10:19;;;;;;;4.82;2.05;;;16.80;99.90;;;;;;5043263;28;20103;-66
2023/08/31 11:12:52;;;;;;;3.65;1.98;;;17.00;99.90;;;;;;5015604;28;20051;-66
2023/08/31 11:15:26;;;;;;;;;;;17.10;99.90;;;;;;5028551;28;20046;-66
2023/08/31 11:17:58;;;;;;;3.00;1.73;;;17.10;99.90;;;;;;5023895;28;20305;-66
2023/08/31 11:20:31;;;;;;;3.92;1.88;;;17.20;99.90;;;;;;5036798;28;20041;-66
2023/08/31 11:23:03;;;;;;;3.35;1.88;;;17.30;99.90;;;;;;5039330;28;20033;-66
2023/08/31 11:25:35;;;;;;;4.47;2.08;;;17.40;99.90;;;;;;5035830;28;20046;-66
2023/08/31 11:28:05;;;;;;;2.97;1.85;;;17.40;99.90;;;;;;5035918;28;20096;-66
2023/08/31 11:30:37;;;;;;;3.83;1.73;;;17.50;99.90;;;;;;5033906;28;20106;-65
2023/08/31 11:33:05;;;;;;;3.70;1.85;;;17.40;99.90;;;;;;5033251;28;20577;-66
2023/08/31 11:35:42;;;;;;;4.47;1.60;;;17.40;99.90;;;;;;5034011;28;20522;-66
2023/08/31 11:38:14;;;;;;;3.15;1.88;;;17.40;99.90;;;;;;5028299;28;20041;-66
2023/08/31 11:40:46;;;;;;;5.20;2.30;;;17.40;99.90;;;;;;5033546;28;20045;-66
2023/08/31 11:43:19;;;;;;;6.13;1.92;;;17.50;99.90;;;;;;5035564;28;20045;-66
2023/08/31 11:45:51;;;;;;;2.80;1.70;;;17.50;99.90;;;;;;5038274;28;20425;-65
2023/08/31 11:48:24;;;;;;;4.28;1.85;;;17.60;99.90;;;;;;5033084;28;20049;-65
2023/08/31 11:50:56;;;;;;;4.22;1.67;;;17.70;99.90;;;;;;5036692;28;20043;-66
2023/08/31 11:53:29;;;;;;;4.07;1.60;;;17.70;99.90;;;;;;5035936;28;20045;-65
2023/08/31 11:56:04;;;;;;;7.43;3.28;;;17.80;99.90;;;;;;5032025;28;20510;-66
2023/08/31 11:58:45;;;;;;;5.18;2.05;;;18.00;99.90;;;;;;5035747;28;20065;-66
2023/08/31 12:01:19;;;;;;;4.15;1.58;;;18.10;99.90;;;;;;5026998;28;20387;-66
2023/08/31 12:03:54;;;;;;;3.03;1.33;;;18.00;99.90;;;;;;5032972;28;20045;-66
2023/08/31 12:06:26;;;;;;;2.53;1.67;;;17.80;99.90;;;;;;5036131;28;20038;-66
2023/08/31 12:08:58;;;;;;;2.88;1.50;;;17.80;99.90;;;;;;5039854;28;20046;-66
2023/08/31 12:11:30;;;;;;;3.53;1.70;;;17.80;99.90;;;;;;5030945;28;20045;-66
2023/08/31 12:14:04;;;;;;;3.33;2.03;;;18.00;99.90;;;;;;5030535;28;20049;-66
2023/08/31 12:16:36;;;;;;;3.05;1.50;;;18.00;99.90;;;;;;5030793;28;20033;-66
2023/08/31 12:19:06;;;;;;;4.97;2.20;;;18.00;99.90;;;;;;5028945;28;20045;-65
2023/08/31 12:21:39;;;;;;;3.33;2.13;;;18.00;99.90;;;;;;5039907;28;20042;-66
2023/08/31 12:24:11;;;;;;;3.85;1.67;;;18.10;99.90;;;;;;5030663;28;20038;-66
2023/08/31 12:26:43;;;;;;;4.65;2.75;;;18.00;99.90;;;;;;5034623;28;20514;-66
2023/08/31 12:29:15;;;;;;;5.40;1.98;;;18.00;99.90;;;;;;5035964;28;20040;-66
2023/08/31 12:31:47;;;;;;;4.00;1.70;;;18.00;99.90;;;;;;5041196;28;20052;-66
2023/08/31 12:34:19;;;;;;;3.28;2.00;;;18.00;99.90;;;;;;5032044;28;20048;-66
2023/08/31 12:36:52;;;;;;;3.30;1.98;;;17.90;99.90;;;;;;5031500;28;20048;-66
2023/08/31 12:39:24;;;;;;;2.10;1.30;;;17.90;99.90;;;;;;5030475;28;20034;-66
2023/08/31 12:41:51;;;;;;;5.03;2.13;;;17.90;99.90;;;;;;5044219;28;20067;-66
2023/08/31 12:44:17;;;;;;;2.92;1.77;;;18.00;99.90;;;;;;5035608;28;20136;-66
2023/08/31 12:46:49;;;;;;;4.07;1.90;;;18.00;99.90;;;;;;5036398;28;20430;-66
2023/08/31 12:49:22;;;;;;;3.05;1.52;;;18.00;99.90;;;;;;5035455;28;20060;-66
2023/08/31 12:51:52;;;;;;;5.35;1.92;;;18.10;99.90;;;;;;5034233;28;20041;-65
2023/08/31 12:54:24;;;;;;;4.18;1.60;;;18.20;99.90;;;;;;5037646;28;20039;-66
2023/08/31 12:56:56;;;;;;;3.75;1.77;;;18.40;99.90;;;;;;5033039;28;20064;-66
2023/08/31 12:59:23;;;;;;;4.28;1.77;;;18.60;99.90;;;;;;5029473;28;20401;-66
2023/08/31 13:01:57;;;;;;;4.43;1.80;;;18.50;99.90;;;;;;5028549;28;20041;-66
2023/08/31 13:04:29;;;;;;;2.65;1.90;;;18.40;99.90;;;;;;5027842;28;20034;-66
2023/08/31 13:07:00;;;;;;;6.03;1.73;;;18.50;99.90;;;;;;5030732;28;20056;-66
2023/08/31 13:09:32;;;;;;;4.28;1.85;;;18.40;99.90;;;;;;5043215;28;20052;-65
2023/08/31 13:12:04;;;;;;;3.17;1.88;;;18.40;99.90;;;;;;5023900;28;20063;-66
2023/08/31 13:14:36;;;;;;;3.55;1.55;;;18.10;99.90;;;;;;5032723;28;20669;-66